createdAt,value
2023-02-13T00:01:51.228Z,25.83
2023-02-13T00:04:17.536Z,26.43
2023-02-13T00:06:43.906Z,27.83
2023-02-13T00:09:11.169Z,27.47
2023-02-13T00:11:37.505Z,33.17
2023-02-13T00:14:03.839Z,32.73
2023-02-13T00:16:30.201Z,21.00
2023-02-13T00:18:56.579Z,33.13
2023-02-13T00:21:22.899Z,27.20
2023-02-13T00:23:49.197Z,27.23
2023-02-13T00:26:16.525Z,32.60
2023-02-13T00:28:43.346Z,30.57
2023-02-13T00:31:11.084Z,21.60
2023-02-13T00:33:37.724Z,23.70
2023-02-13T00:36:08.277Z,25.00
2023-02-13T00:38:35.921Z,34.33
2023-02-13T00:41:02.566Z,28.37
2023-02-13T00:43:28.938Z,30.90
2023-02-13T00:45:55.233Z,32.23
2023-02-13T00:48:21.539Z,26.90
2023-02-13T00:50:48.015Z,24.53
2023-02-13T00:53:14.324Z,19.17
2023-02-13T00:55:40.629Z,25.13
2023-02-13T00:58:07.019Z,32.97
2023-02-13T01:00:33.366Z,29.43
2023-02-13T01:02:59.668Z,28.93
2023-02-13T01:05:27.978Z,30.03
2023-02-13T01:07:54.535Z,31.50
2023-02-13T01:10:21.076Z,29.30
2023-02-13T01:12:47.449Z,25.10
2023-02-13T01:15:13.783Z,32.27
2023-02-13T01:17:40.163Z,28.07
2023-02-13T01:20:07.178Z,30.77
2023-02-13T01:22:33.522Z,22.60
2023-02-13T01:24:59.855Z,26.60
2023-02-13T01:27:27.398Z,27.87
2023-02-13T01:29:53.740Z,27.17
2023-02-13T01:32:20.164Z,32.07
2023-02-13T01:34:46.542Z,30.23
2023-02-13T01:37:12.954Z,29.53
2023-02-13T01:39:39.330Z,30.47
2023-02-13T01:42:05.774Z,29.77
2023-02-13T01:44:48.721Z,24.07
2023-02-13T01:47:18.245Z,29.13
2023-02-13T01:49:46.164Z,31.00
2023-02-13T01:52:12.809Z,21.17
2023-02-13T01:54:39.252Z,21.80
2023-02-13T01:57:11.262Z,26.87
2023-02-13T01:59:44.439Z,31.07
2023-02-13T02:02:10.868Z,33.63
2023-02-13T02:04:38.774Z,38.67
2023-02-13T02:07:08.621Z,28.40
2023-02-13T02:09:42.094Z,28.97
2023-02-13T02:12:23.555Z,35.57
2023-02-13T02:14:50.732Z,27.33
2023-02-13T02:17:17.636Z,34.03
2023-02-13T02:20:02.714Z,26.63
2023-02-13T02:22:50.958Z,24.98
2023-02-13T02:25:36.159Z,29.17
2023-02-13T02:28:21.038Z,22.25
2023-02-13T02:31:06.519Z,31.80
2023-02-13T02:33:38.485Z,28.05
2023-02-13T02:36:19.886Z,31.40
2023-02-13T02:39:02.090Z,33.90
2023-02-13T02:41:46.570Z,29.03
2023-02-13T02:44:35.977Z,25.77
2023-02-13T02:47:46.758Z,37.20
2023-02-13T02:50:17.392Z,23.73
2023-02-13T02:52:46.428Z,30.93
2023-02-13T02:55:15.982Z,39.73
2023-02-13T02:58:06.074Z,23.57
2023-02-13T03:00:52.115Z,25.50
2023-02-13T03:03:39.445Z,29.23
2023-02-13T03:06:12.309Z,31.37
2023-02-13T03:08:59.213Z,32.97
2023-02-13T03:11:44.697Z,33.90
2023-02-13T03:14:11.841Z,29.92
2023-02-13T03:16:56.914Z,31.20
2023-02-13T03:19:50.004Z,40.75
2023-02-13T03:22:26.526Z,35.33
2023-02-13T03:25:02.109Z,28.90
2023-02-13T03:27:59.502Z,27.93
2023-02-13T03:30:25.875Z,35.67
2023-02-13T03:33:12.495Z,33.57
2023-02-13T03:36:09.781Z,30.33
2023-02-13T03:38:42.432Z,33.00
2023-02-13T03:41:19.364Z,32.13
2023-02-13T03:43:45.686Z,32.93
2023-02-13T03:46:12.301Z,35.33
2023-02-13T03:48:58.869Z,27.47
2023-02-13T03:51:28.824Z,26.37
2023-02-13T03:53:56.817Z,30.30
2023-02-13T03:56:42.398Z,37.10
2023-02-13T04:01:46.608Z,28.48
2023-02-13T04:04:22.399Z,37.20
2023-02-13T04:06:51.300Z,33.13
2023-02-13T04:09:18.029Z,33.67
2023-02-13T04:11:53.113Z,34.67
2023-02-13T04:14:23.727Z,34.88
2023-02-13T04:16:52.035Z,43.60
2023-02-13T04:19:18.738Z,29.80
2023-02-13T04:21:49.046Z,35.83
2023-02-13T04:24:15.336Z,30.20
2023-02-13T04:26:42.774Z,33.53
2023-02-13T04:29:09.532Z,37.90
2023-02-13T04:31:36.009Z,32.83
2023-02-13T04:34:02.518Z,35.47
2023-02-13T04:36:28.946Z,39.50
2023-02-13T04:38:55.354Z,31.07
2023-02-13T04:41:21.908Z,35.07
2023-02-13T04:43:49.298Z,31.67
2023-02-13T04:46:15.664Z,33.30
2023-02-13T04:48:42.018Z,31.13
2023-02-13T04:51:08.419Z,25.87
2023-02-13T04:53:34.719Z,21.07
2023-02-13T04:56:01.055Z,32.50
2023-02-13T04:58:27.353Z,27.60
2023-02-13T05:00:53.686Z,29.20
2023-02-13T05:03:20.050Z,30.70
2023-02-13T05:05:46.376Z,31.60
2023-02-13T05:08:12.879Z,30.20
2023-02-13T05:10:39.248Z,31.93
2023-02-13T05:13:05.573Z,28.77
2023-02-13T05:15:31.945Z,27.73
2023-02-13T05:17:58.286Z,27.53
2023-02-13T05:20:24.596Z,19.33
2023-02-13T05:23:10.689Z,27.60
2023-02-13T05:25:37.882Z,27.43
2023-02-13T05:28:04.668Z,23.63
2023-02-13T05:30:31.294Z,26.03
2023-02-13T05:32:57.618Z,27.43
2023-02-13T05:35:24.953Z,28.83
2023-02-13T05:37:51.268Z,28.63
2023-02-13T05:40:17.602Z,25.37
2023-02-13T05:42:43.967Z,23.77
2023-02-13T05:45:10.684Z,30.90
2023-02-13T05:47:37.041Z,24.47
2023-02-13T05:50:03.489Z,26.43
2023-02-13T05:52:29.775Z,23.70
2023-02-13T05:54:56.162Z,22.43
2023-02-13T05:57:22.480Z,26.03
2023-02-13T05:59:48.789Z,26.40
2023-02-13T06:02:15.142Z,8.10
2023-02-13T06:04:41.572Z,7.13
2023-02-13T06:07:07.908Z,6.93
2023-02-13T06:09:34.561Z,6.23
2023-02-13T06:12:04.205Z,9.77
2023-02-13T06:14:30.607Z,15.20
2023-02-13T06:16:57.504Z,11.27
2023-02-13T06:19:24.182Z,9.77
2023-02-13T06:21:52.234Z,10.07
2023-02-13T06:24:18.542Z,9.83
2023-02-13T06:26:45.000Z,8.53
2023-02-13T06:29:12.830Z,25.53
2023-02-13T06:31:39.249Z,25.57
2023-02-13T06:34:05.689Z,24.37
2023-02-13T06:36:32.033Z,24.30
2023-02-13T06:38:58.495Z,18.53
2023-02-13T06:41:24.800Z,19.87
2023-02-13T06:43:51.184Z,16.00
2023-02-13T06:46:17.561Z,15.07
2023-02-13T06:48:43.882Z,15.50
2023-02-13T06:51:10.171Z,19.00
2023-02-13T06:53:36.494Z,16.73
2023-02-13T06:56:03.948Z,18.87
2023-02-13T06:58:30.269Z,14.70
2023-02-13T07:00:56.909Z,26.30
2023-02-13T07:03:23.532Z,17.93
2023-02-13T07:05:52.123Z,26.47
2023-02-13T07:08:18.535Z,17.03
2023-02-13T07:10:44.905Z,17.00
2023-02-13T07:13:11.279Z,14.97
2023-02-13T07:15:38.237Z,12.67
2023-02-13T07:18:05.267Z,16.13
2023-02-13T07:20:32.046Z,20.97
2023-02-13T07:22:59.837Z,17.70
2023-02-13T07:25:26.624Z,33.00
2023-02-13T07:27:52.925Z,16.23
2023-02-13T07:30:19.233Z,10.30
2023-02-13T07:32:45.529Z,8.47
2023-02-13T07:35:11.858Z,8.33
2023-02-13T07:37:38.180Z,8.23
2023-02-13T07:40:06.490Z,10.07
2023-02-13T07:42:33.581Z,14.53
2023-02-13T07:44:59.985Z,13.23
2023-02-13T07:47:26.466Z,9.80
2023-02-13T07:49:54.752Z,20.10
2023-02-13T07:52:21.133Z,11.27
2023-02-13T07:54:47.867Z,15.63
2023-02-13T07:57:15.038Z,16.73
2023-02-13T07:59:41.369Z,18.27
2023-02-13T08:02:10.927Z,17.93
2023-02-13T08:04:37.318Z,18.07
2023-02-13T08:07:03.607Z,20.00
2023-02-13T08:09:48.879Z,23.50
2023-02-13T08:12:15.215Z,15.70
2023-02-13T08:14:41.550Z,24.10
2023-02-13T08:17:09.349Z,31.33
2023-02-13T08:19:36.055Z,35.07
2023-02-13T08:22:02.374Z,34.27
2023-02-13T08:24:28.735Z,39.10
2023-02-13T08:26:56.165Z,40.63
2023-02-13T08:29:22.461Z,35.20
2023-02-13T08:31:48.818Z,41.70
2023-02-13T08:34:15.181Z,38.43
2023-02-13T08:36:41.475Z,38.03
2023-02-13T08:39:09.270Z,34.57
2023-02-13T08:41:35.669Z,38.47
2023-02-13T08:44:01.970Z,37.57
2023-02-13T08:46:28.374Z,28.63
2023-02-13T08:48:54.757Z,38.47
2023-02-13T08:51:21.116Z,41.33
2023-02-13T08:53:47.452Z,49.70
2023-02-13T08:56:13.795Z,45.23
2023-02-13T08:58:40.113Z,44.50
2023-02-13T09:01:07.137Z,48.83
2023-02-13T09:03:33.962Z,45.53
2023-02-13T09:06:01.037Z,49.27
2023-02-13T09:08:27.569Z,43.00
2023-02-13T09:10:57.902Z,48.80
2023-02-13T09:13:24.253Z,34.97
2023-02-13T09:15:50.548Z,36.77
2023-02-13T09:18:16.906Z,39.03
2023-02-13T09:20:43.209Z,34.63
2023-02-13T09:23:09.583Z,32.07
2023-02-13T09:25:36.425Z,34.10
2023-02-13T09:28:02.804Z,31.70
2023-02-13T09:30:29.249Z,29.47
2023-02-13T09:32:55.689Z,26.70
2023-02-13T09:35:22.810Z,33.13
2023-02-13T09:37:49.097Z,38.03
2023-02-13T09:40:18.089Z,33.07
2023-02-13T09:42:45.237Z,33.43
2023-02-13T09:45:12.208Z,28.87
2023-02-13T09:47:42.640Z,36.17
2023-02-13T09:50:17.025Z,35.07
2023-02-13T09:52:44.834Z,35.47
2023-02-13T09:55:14.996Z,25.52
2023-02-13T09:57:51.674Z,31.88
2023-02-13T10:00:23.833Z,26.92
2023-02-13T10:02:59.071Z,29.42
2023-02-13T10:07:51.760Z,32.85
2023-02-13T10:10:21.261Z,32.70
2023-02-13T10:12:56.036Z,25.35
2023-02-13T10:15:38.271Z,31.27
2023-02-13T10:18:14.501Z,23.40
2023-02-13T10:20:52.733Z,24.90
2023-02-13T10:23:28.125Z,24.20
2023-02-13T10:25:57.785Z,29.35
2023-02-13T10:28:37.802Z,18.85
2023-02-13T10:31:12.067Z,20.92
2023-02-13T10:33:50.024Z,20.97
2023-02-13T10:36:21.013Z,18.70
2023-02-13T10:38:56.555Z,22.20
2023-02-13T10:41:24.384Z,38.95
2023-02-13T10:43:50.662Z,21.35
2023-02-13T10:46:24.714Z,17.83
2023-02-13T10:49:14.379Z,18.17
2023-02-13T10:52:02.496Z,21.83
2023-02-13T10:54:47.909Z,18.45
2023-02-13T10:57:24.759Z,20.60
2023-02-13T10:59:54.149Z,17.42
2023-02-13T11:02:25.236Z,15.23
2023-02-13T11:04:53.166Z,20.23
2023-02-13T11:07:21.714Z,18.42
2023-02-13T11:09:49.428Z,17.35
2023-02-13T11:12:36.097Z,19.00
2023-02-13T11:15:04.265Z,12.13
2023-02-13T11:17:32.488Z,19.25
2023-02-13T11:20:00.618Z,17.00
2023-02-13T11:22:37.750Z,18.55
2023-02-13T11:25:07.016Z,18.65
2023-02-13T11:27:35.316Z,22.13
2023-02-13T11:30:05.127Z,19.45
2023-02-13T11:32:32.497Z,19.08
2023-02-13T11:35:16.250Z,14.48
2023-02-13T11:37:42.576Z,15.95
2023-02-13T11:40:24.177Z,15.55
2023-02-13T11:42:50.913Z,23.40
2023-02-13T11:45:24.757Z,18.08
2023-02-13T11:47:51.906Z,14.73
2023-02-13T11:50:29.993Z,13.10
2023-02-13T11:52:58.310Z,18.05
2023-02-13T11:55:29.654Z,19.27
2023-02-13T11:58:00.265Z,15.20
2023-02-13T12:00:40.224Z,14.40
2023-02-13T12:03:22.132Z,15.77
2023-02-13T12:06:03.922Z,14.02
2023-02-13T12:08:30.898Z,15.32
2023-02-13T12:10:58.864Z,15.38
2023-02-13T12:13:33.020Z,14.95
2023-02-13T12:16:01.576Z,19.75
2023-02-13T12:18:38.765Z,16.42
2023-02-13T12:21:05.147Z,16.30
2023-02-13T12:23:31.631Z,20.63
2023-02-13T12:26:10.015Z,18.73
2023-02-13T12:28:46.032Z,20.75
2023-02-13T12:31:15.195Z,17.35
2023-02-13T12:33:44.717Z,16.63
2023-02-13T12:36:37.362Z,16.17
2023-02-13T12:39:17.173Z,17.63
2023-02-13T12:42:03.716Z,16.00
2023-02-13T12:44:38.637Z,16.90
2023-02-13T12:47:17.254Z,17.92
2023-02-13T12:49:59.176Z,15.27
2023-02-13T12:52:28.275Z,15.73
2023-02-13T12:55:00.512Z,15.60
2023-02-13T12:57:26.801Z,16.20
2023-02-13T12:59:54.214Z,15.68
2023-02-13T13:02:31.592Z,31.33
2023-02-13T13:05:00.688Z,13.95
2023-02-13T13:07:34.181Z,13.88
2023-02-13T13:10:00.470Z,24.50
2023-02-13T13:12:50.521Z,15.60
2023-02-13T13:15:19.627Z,13.63
2023-02-13T13:17:58.061Z,8.57
2023-02-13T13:20:39.610Z,12.70
2023-02-13T13:23:11.210Z,11.20
2023-02-13T13:25:43.827Z,13.65
2023-02-13T13:28:19.289Z,11.73
2023-02-13T13:30:47.071Z,10.10
2023-02-13T13:33:17.800Z,9.20
2023-02-13T13:35:47.860Z,8.90
2023-02-13T13:38:25.355Z,15.85
2023-02-13T13:41:01.614Z,18.83
2023-02-13T13:43:27.903Z,18.17
2023-02-13T13:46:01.771Z,17.75
2023-02-13T13:48:57.401Z,21.23
2023-02-13T13:51:23.798Z,15.35
2023-02-13T13:54:05.519Z,14.65
2023-02-13T13:56:50.725Z,17.25
2023-02-13T13:59:18.396Z,16.00
2023-02-13T14:01:44.761Z,13.85
2023-02-13T14:04:30.004Z,17.13
2023-02-13T14:06:59.069Z,13.32
2023-02-13T14:09:28.372Z,17.92
2023-02-13T14:11:56.488Z,16.52
2023-02-13T14:14:28.644Z,14.90
2023-02-13T14:16:56.328Z,16.23
2023-02-13T14:19:35.631Z,17.40
2023-02-13T14:22:20.130Z,17.13
2023-02-13T14:24:50.241Z,21.45
2023-02-13T14:27:28.456Z,18.45
2023-02-13T14:29:55.472Z,18.00
2023-02-13T14:32:27.594Z,17.48
2023-02-13T14:34:58.808Z,18.77
2023-02-13T14:37:45.354Z,12.15
2023-02-13T14:40:11.773Z,14.10
2023-02-13T14:42:39.131Z,12.38
2023-02-13T14:45:11.527Z,10.45
2023-02-13T14:47:42.700Z,11.82
2023-02-13T14:50:15.920Z,14.18
2023-02-13T14:52:43.235Z,10.40
2023-02-13T14:55:31.231Z,12.35
2023-02-13T14:58:05.372Z,15.55
2023-02-13T15:00:39.723Z,14.48
2023-02-13T15:03:13.677Z,16.87
2023-02-13T15:05:40.261Z,16.05
2023-02-13T15:08:06.591Z,15.88
2023-02-13T15:10:46.865Z,18.13
2023-02-13T15:13:18.360Z,16.92
2023-02-13T15:15:46.013Z,17.08
2023-02-13T15:18:18.903Z,14.75
2023-02-13T15:20:46.225Z,16.75
2023-02-13T15:23:26.591Z,11.75
2023-02-13T15:25:56.584Z,15.93
2023-02-13T15:28:23.917Z,14.73
2023-02-13T15:31:04.090Z,11.45
2023-02-13T15:33:46.837Z,14.20
2023-02-13T15:36:17.736Z,14.82
2023-02-13T15:38:44.134Z,16.50
2023-02-13T15:41:12.188Z,12.10
2023-02-13T15:43:40.406Z,17.00
2023-02-13T15:46:17.213Z,13.10
2023-02-13T15:48:43.865Z,15.68
2023-02-13T15:51:18.257Z,13.27
2023-02-13T15:53:58.450Z,13.55
2023-02-13T15:56:25.465Z,15.05
2023-02-13T15:58:52.640Z,20.20
2023-02-13T16:01:19.655Z,18.70
2023-02-13T16:03:48.008Z,13.88
2023-02-13T16:06:15.532Z,15.43
2023-02-13T16:08:45.974Z,15.57
2023-02-13T16:11:30.123Z,15.85
2023-02-13T16:14:01.136Z,13.52
2023-02-13T16:16:28.712Z,19.30
2023-02-13T16:18:55.167Z,13.45
2023-02-13T16:21:26.309Z,14.30
2023-02-13T16:23:56.494Z,15.82
2023-02-13T16:26:22.853Z,16.08
2023-02-13T16:28:49.292Z,14.00
2023-02-13T16:31:16.972Z,14.73
2023-02-13T16:33:43.759Z,17.80
2023-02-13T16:36:10.079Z,13.70
2023-02-13T16:38:38.226Z,14.00
2023-02-13T16:41:28.713Z,11.45
2023-02-13T16:43:55.908Z,12.73
2023-02-13T16:46:25.085Z,13.38
2023-02-13T16:48:57.491Z,14.77
2023-02-13T16:51:29.754Z,16.52
2023-02-13T16:54:00.517Z,13.02
2023-02-13T16:56:26.884Z,16.02
2023-02-13T16:59:14.202Z,11.57
2023-02-13T17:01:40.513Z,13.98
2023-02-13T17:04:25.474Z,13.30
2023-02-13T17:06:54.529Z,20.13
2023-02-13T17:09:20.957Z,12.02
2023-02-13T17:11:51.590Z,13.75
2023-02-13T17:14:19.496Z,12.32
2023-02-13T17:16:46.833Z,15.50
2023-02-13T17:19:13.186Z,12.25
2023-02-13T17:21:39.953Z,12.18
2023-02-13T17:24:06.826Z,14.27
2023-02-13T17:26:33.113Z,15.85
2023-02-13T17:28:59.462Z,16.58
2023-02-13T17:31:25.874Z,10.23
2023-02-13T17:33:52.386Z,15.65
2023-02-13T17:36:18.684Z,13.63
2023-02-13T17:38:45.002Z,12.18
2023-02-13T17:41:15.140Z,15.00
2023-02-13T17:43:41.577Z,15.32
2023-02-13T17:46:08.404Z,12.50
2023-02-13T17:48:34.801Z,11.68
2023-02-13T17:51:01.386Z,10.10
2023-02-13T17:53:31.496Z,12.20
2023-02-13T17:55:58.218Z,12.88
2023-02-13T17:58:24.605Z,12.10
2023-02-13T18:00:51.154Z,14.95
2023-02-13T18:03:17.666Z,7.85
2023-02-13T18:05:47.957Z,17.90
2023-02-13T18:08:14.434Z,12.55
2023-02-13T18:10:40.886Z,12.05
2023-02-13T18:13:07.455Z,14.52
2023-02-13T18:15:34.664Z,13.15
2023-02-13T18:18:01.172Z,11.75
2023-02-13T18:20:27.467Z,9.93
2023-02-13T18:22:53.882Z,13.05
2023-02-13T18:25:20.503Z,17.40
2023-02-13T18:27:47.399Z,12.15
2023-02-13T18:30:14.954Z,13.65
2023-02-13T18:32:41.538Z,10.95
2023-02-13T18:35:08.140Z,12.48
2023-02-13T18:37:34.755Z,14.23
2023-02-13T18:40:01.358Z,16.35
2023-02-13T18:42:27.760Z,14.68
2023-02-13T18:44:54.120Z,18.43
2023-02-13T18:47:20.413Z,11.73
2023-02-13T18:49:46.710Z,16.48
2023-02-13T18:52:13.128Z,9.88
2023-02-13T18:54:39.772Z,13.32
2023-02-13T18:57:06.299Z,15.68
2023-02-13T18:59:32.671Z,14.10
2023-02-13T19:01:59.002Z,13.10
2023-02-13T19:04:25.308Z,12.83
2023-02-13T19:06:51.677Z,10.70
2023-02-13T19:09:17.997Z,17.30
2023-02-13T19:11:44.499Z,16.00
2023-02-13T19:14:12.337Z,13.73
2023-02-13T19:16:38.742Z,13.17
2023-02-13T19:19:05.877Z,16.33
2023-02-13T19:21:33.053Z,15.97
2023-02-13T19:23:59.436Z,11.87
2023-02-13T19:26:26.514Z,16.60
2023-02-13T19:28:53.057Z,14.60
2023-02-13T19:31:21.930Z,14.10
2023-02-13T19:33:48.874Z,14.50
2023-02-13T19:36:18.177Z,16.47
2023-02-13T19:38:45.965Z,15.67
2023-02-13T19:41:13.929Z,15.00
2023-02-13T19:43:40.419Z,20.97
2023-02-13T19:46:10.215Z,16.33
2023-02-13T19:48:36.967Z,17.53
2023-02-13T19:51:14.458Z,18.63
2023-02-13T19:53:42.036Z,18.37
2023-02-13T19:56:09.280Z,20.23
2023-02-13T19:58:39.087Z,15.10
2023-02-13T20:01:06.381Z,19.67
2023-02-13T20:03:32.749Z,21.87
2023-02-13T20:06:02.816Z,20.90
2023-02-13T20:08:29.124Z,14.83
2023-02-13T20:10:55.429Z,16.43
2023-02-13T20:13:21.848Z,22.80
2023-02-13T20:15:48.200Z,19.63
2023-02-13T20:18:17.119Z,18.43
2023-02-13T20:20:43.788Z,21.57
2023-02-13T20:23:10.150Z,20.77
2023-02-13T20:25:36.670Z,16.67
2023-02-13T20:28:03.505Z,19.97
2023-02-13T20:30:29.842Z,18.90
2023-02-13T20:32:56.228Z,22.00
2023-02-13T20:35:22.637Z,21.43
2023-02-13T20:37:48.961Z,13.97
2023-02-13T20:40:15.407Z,15.03
2023-02-13T20:42:41.804Z,20.03
2023-02-13T20:45:08.338Z,15.47
2023-02-13T20:47:34.686Z,16.27
2023-02-13T20:50:00.989Z,22.50
2023-02-13T20:52:27.545Z,20.97
2023-02-13T20:54:53.933Z,18.30
2023-02-13T20:57:20.249Z,13.73
2023-02-13T20:59:46.557Z,12.07
2023-02-13T21:02:13.036Z,13.93
2023-02-13T21:04:39.505Z,13.80
2023-02-13T21:07:09.136Z,12.73
2023-02-13T21:09:36.428Z,11.80
2023-02-13T21:12:03.262Z,13.47
2023-02-13T21:14:29.604Z,12.03
2023-02-13T21:16:55.935Z,14.63
2023-02-13T21:19:22.328Z,13.60
2023-02-13T21:21:48.678Z,15.53
2023-02-13T21:24:16.535Z,13.50
2023-02-13T21:26:43.055Z,12.20
2023-02-13T21:29:09.567Z,14.20
2023-02-13T21:31:37.624Z,12.97
2023-02-13T21:34:05.001Z,16.50
2023-02-13T21:36:31.976Z,14.30
2023-02-13T21:38:58.290Z,13.53
2023-02-13T21:41:24.749Z,13.87
2023-02-13T21:43:51.157Z,11.77
2023-02-13T21:46:18.697Z,11.00
2023-02-13T21:48:45.410Z,16.43
2023-02-13T21:51:13.574Z,17.83
2023-02-13T21:53:40.170Z,14.80
2023-02-13T21:56:07.712Z,15.80
2023-02-13T21:58:34.741Z,13.30
2023-02-13T22:01:01.779Z,14.17
2023-02-13T22:03:31.278Z,15.70
2023-02-13T22:05:57.647Z,17.93
2023-02-13T22:08:24.152Z,11.63
2023-02-13T22:10:54.337Z,12.07
2023-02-13T22:13:20.658Z,13.27
2023-02-13T22:15:47.033Z,10.73
2023-02-13T22:18:13.352Z,14.67
2023-02-13T22:20:39.897Z,13.63
2023-02-13T22:23:06.216Z,11.13
2023-02-13T22:25:32.529Z,14.37
2023-02-13T22:27:58.830Z,12.20
2023-02-13T22:30:25.164Z,12.93
2023-02-13T22:32:51.501Z,13.00
2023-02-13T22:35:17.816Z,23.20
2023-02-13T22:37:44.122Z,9.93
2023-02-13T22:40:10.636Z,10.73
2023-02-13T22:42:36.942Z,10.90
2023-02-13T22:45:03.345Z,9.27
2023-02-13T22:47:30.085Z,12.83
2023-02-13T22:49:56.398Z,12.80
2023-02-13T22:52:22.743Z,11.47
2023-02-13T22:54:49.046Z,13.97
2023-02-13T22:57:15.400Z,13.03
2023-02-13T22:59:43.410Z,11.60
2023-02-13T23:02:10.351Z,10.77
2023-02-13T23:04:36.872Z,11.40
2023-02-13T23:07:03.251Z,9.90
2023-02-13T23:09:29.564Z,11.57
2023-02-13T23:12:14.273Z,13.07
2023-02-13T23:14:40.617Z,10.93
2023-02-13T23:17:25.756Z,9.80
2023-02-13T23:19:52.059Z,12.65
2023-02-13T23:22:18.469Z,13.97
2023-02-13T23:24:44.769Z,13.23
2023-02-13T23:27:12.846Z,9.70
2023-02-13T23:29:39.381Z,14.70
2023-02-13T23:32:05.864Z,15.17
2023-02-13T23:34:34.173Z,13.67
2023-02-13T23:37:00.503Z,13.23
2023-02-13T23:39:27.246Z,13.00
2023-02-13T23:41:53.911Z,13.07
2023-02-13T23:44:20.478Z,12.97
2023-02-13T23:46:46.810Z,12.20
2023-02-13T23:49:13.476Z,12.97
2023-02-13T23:51:40.208Z,9.63
2023-02-13T23:54:13.748Z,11.30
2023-02-13T23:56:40.189Z,15.37
2023-02-13T23:59:06.521Z,10.93
